Time;durP1;ratioP1;P1;durP2;ratioP2;P2;SDS_P1;SDS_P2;PMS_P1;PMS_P2;Temp;Humidity;BMP_temperature;BMP_pressure;BME280_temperature;BME280_humidity;BME280_pressure;Samples;Min_cycle;Max_cycle;Signal;HPM_P1;HPM_P2
2023/08/01 00:02:45;;;;;;;392.63;365.02;;;15.70;86.00;;;;;;6125718;23;20029;-94
2023/08/01 00:05:37;;;;;;;422.17;391.92;;;15.70;85.50;;;;;;6181472;23;20021;-93
2023/08/01 00:11:34;;;;;;;377.88;352.20;;;15.70;85.40;;;;;;6166847;22;20355;-94
2023/08/01 00:14:12;;;;;;;402.20;373.05;;;15.60;85.30;;;;;;6184079;23;20020;-92
2023/08/01 00:16:38;;;;;;;356.17;331.52;;;15.60;85.30;;;;;;6212970;23;20415;-93
2023/08/01 00:19:55;;;;;;;377.65;351.42;;;15.60;85.10;;;;;;6173190;22;20362;-94
2023/08/01 00:23:06;;;;;;;;;;;;;;;;;;;;;
2023/08/01 00:25:51;;;;;;;374.05;348.75;;;15.50;85.10;;;;;;6224483;23;20070;-93
2023/08/01 00:28:32;;;;;;;370.48;345.63;;;15.40;85.10;;;;;;6195291;23;20020;-92
2023/08/01 00:31:53;;;;;;;;;;;;;;;;;;;;;
2023/08/01 00:35:19;;;;;;;;;;;;;;;;;;;;;
2023/08/01 00:38:16;;;;;;;379.13;352.73;;;15.30;85.20;;;;;;6225161;23;20070;-93
2023/08/01 00:40:50;;;;;;;383.08;356.55;;;15.30;85.10;;;;;;6199156;23;20022;-94
2023/08/01 00:43:59;;;;;;;380.03;353.80;;;15.30;85.10;;;;;;6189953;23;20020;-93
2023/08/01 00:46:31;;;;;;;385.95;358.73;;;15.30;85.30;;;;;;6210817;23;20082;-93
2023/08/01 00:49:12;;;;;;;376.83;350.88;;;15.20;85.40;;;;;;6212989;22;20027;-93
2023/08/01 00:51:58;;;;;;;379.83;353.52;;;15.20;85.40;;;;;;6225199;22;20019;-93
2023/08/01 00:55:02;;;;;;;394.73;367.52;;;15.20;85.30;;;;;;6193296;22;20150;-94
2023/08/01 00:58:08;;;;;;;386.83;358.80;;;15.10;85.30;;;;;;6204345;22;20021;-93
2023/08/01 01:00:55;;;;;;;;;;;;;;;;;;;;;
2023/08/01 01:04:06;;;;;;;;;;;;;;;;;;;;;
2023/08/01 01:06:46;;;;;;;369.73;343.80;;;15.00;85.50;;;;;;6264720;22;20094;-93
2023/08/01 01:09:43;;;;;;;386.65;359.63;;;15.00;85.40;;;;;;6169039;22;20024;-93
2023/08/01 01:12:35;;;;;;;379.73;352.58;;;15.00;85.60;;;;;;6209304;22;20073;-93
2023/08/01 01:15:26;;;;;;;378.58;352.05;;;15.00;85.60;;;;;;6227336;22;20019;-93
2023/08/01 01:18:02;;;;;;;513.95;476.73;;;14.90;85.70;;;;;;6204186;23;20526;-93
2023/08/01 01:21:04;;;;;;;;;;;;;;;;;;;;;
2023/08/01 01:24:02;;;;;;;359.88;333.95;;;14.90;85.80;;;;;;6228323;22;20090;-94
2023/08/01 01:26:59;;;;;;;371.00;345.98;;;14.80;85.70;;;;;;6220517;22;20696;-93
2023/08/01 01:29:40;;;;;;;368.02;343.00;;;14.80;85.80;;;;;;6166293;22;20023;-93
2023/08/01 01:32:57;;;;;;;;;;;;;;;;;;;;;
2023/08/01 01:36:06;;;;;;;;;;;;;;;;;;;;;
2023/08/01 01:38:55;;;;;;;492.65;457.77;;;14.70;86.00;;;;;;6266163;22;20016;-93
2023/08/01 01:41:40;;;;;;;;;;;14.70;86.10;;;;;;6249875;22;20027;-93
2023/08/01 01:44:32;;;;;;;386.13;359.23;;;14.70;86.00;;;;;;6214454;22;19922;-93
2023/08/01 01:47:12;;;;;;;400.45;372.85;;;14.60;86.20;;;;;;6218161;22;20047;-93
2023/08/01 01:50:26;;;;;;;;;;;;;;;;;;;;;
2023/08/01 01:53:01;;;;;;;377.98;351.35;;;14.60;86.20;;;;;;6230588;22;20020;-92
2023/08/01 01:55:35;;;;;;;374.27;348.63;;;14.60;86.10;;;;;;6219137;22;20022;-93
2023/08/01 01:58:29;;;;;;;360.00;334.30;;;14.60;86.10;;;;;;6170086;22;20054;-94
2023/08/01 02:01:44;;;;;;;362.13;335.95;;;14.50;86.20;;;;;;6243698;22;20467;-93
2023/08/01 02:04:54;;;;;;;;;;;;;;;;;;;;;
2023/08/01 02:07:36;;;;;;;;;;;14.50;86.20;;;;;;6232408;22;20351;-93
2023/08/01 02:10:36;;;;;;;400.05;372.70;;;14.40;86.00;;;;;;6183394;23;19923;-93
2023/08/01 02:14:07;;;;;;;;;;;;;;;;;;;;;
2023/08/01 02:16:59;;;;;;;381.25;354.38;;;14.40;86.20;;;;;;6106748;23;20024;-92
2023/08/01 02:24:11;;;;;;;388.98;361.10;;;14.30;86.10;;;;;;6067307;23;20018;-92
2023/08/01 02:27:00;;;;;;;382.30;356.52;;;14.20;86.20;;;;;;6065935;23;20018;-93
2023/08/01 02:30:21;;;;;;;;;;;;;;;;;;;;;
2023/08/01 02:36:53;;;;;;;;;;;;;;;;;;;;;
2023/08/01 02:43:35;;;;;;;;;;;;;;;;;;;;;
2023/08/01 02:46:52;;;;;;;404.35;375.83;;;14.00;86.10;;;;;;6210474;22;20031;-94
2023/08/01 02:52:33;;;;;;;378.30;351.88;;;14.00;86.20;;;;;;6222579;22;20386;-93
2023/08/01 02:55:31;;;;;;;366.65;340.80;;;13.90;86.30;;;;;;6272174;22;20015;-93
2023/08/01 02:58:12;;;;;;;363.33;338.25;;;13.90;86.30;;;;;;6231950;22;20049;-93
2023/08/01 03:00:53;;;;;;;377.40;351.15;;;14.00;86.40;;;;;;6252959;22;20023;-93
2023/08/01 03:03:44;;;;;;;361.35;335.73;;;14.00;86.50;;;;;;6238360;22;20015;-93
2023/08/01 03:06:21;;;;;;;343.60;320.38;;;14.00;86.50;;;;;;6248918;22;20019;-93
2023/08/01 03:20:54;;;;;;;453.65;419.95;;;14.00;86.60;;;;;;6037724;23;20031;-94
2023/08/01 03:42:20;;;;;;;360.23;334.42;;;14.20;86.70;;;;;;5896766;24;20025;-93
2023/08/01 03:53:27;;;;;;;;;;;;;;;;;;;;;
2023/08/01 04:00:35;;;;;;;;;;;;;;;;;;;;;
2023/08/01 04:03:01;;;;;;;340.42;317.35;;;14.30;86.40;;;;;;6010699;23;20029;-91
2023/08/01 04:06:22;;;;;;;449.50;418.33;;;14.30;86.40;;;;;;6035474;23;20019;-91
2023/08/01 04:08:56;;;;;;;320.35;298.05;;;14.30;86.30;;;;;;6009999;23;20499;-90
2023/08/01 04:11:25;;;;;;;337.45;314.25;;;14.30;86.30;;;;;;6148695;23;20016;-92
2023/08/01 04:14:16;;;;;;;345.08;321.15;;;14.30;86.30;;;;;;6193279;22;20046;-91
2023/08/01 04:19:59;;;;;;;385.27;358.45;;;14.30;86.20;;;;;;6228141;22;20020;-91
2023/08/01 04:22:28;;;;;;;345.65;322.35;;;14.30;86.10;;;;;;6214833;22;20089;-92
2023/08/01 04:24:57;;;;;;;358.00;333.20;;;14.30;86.20;;;;;;6192004;23;20012;-91
2023/08/01 04:27:28;;;;;;;342.17;318.73;;;14.30;86.20;;;;;;6184772;22;20023;-91
2023/08/01 04:29:57;;;;;;;387.95;361.73;;;14.30;86.20;;;;;;6220389;23;20020;-92
2023/08/01 04:32:26;;;;;;;422.65;392.33;;;14.30;86.10;;;;;;6214787;22;20071;-91
2023/08/01 04:34:51;;;;;;;330.38;307.60;;;14.20;86.10;;;;;;6216173;23;20039;-92
2023/08/01 04:37:26;;;;;;;332.83;309.25;;;14.20;86.10;;;;;;6209095;23;20020;-90
2023/08/01 04:39:51;;;;;;;413.42;384.55;;;14.20;86.20;;;;;;6166284;23;20056;-91
2023/08/01 04:42:20;;;;;;;344.35;320.13;;;14.20;86.20;;;;;;6206182;22;20074;-91
2023/08/01 04:44:57;;;;;;;336.92;313.10;;;14.20;86.30;;;;;;6240048;23;20012;-90
2023/08/01 04:47:23;;;;;;;324.95;301.77;;;14.20;86.30;;;;;;6207736;22;20025;-91
2023/08/01 04:49:52;;;;;;;439.85;408.75;;;14.20;86.40;;;;;;6218011;23;20016;-91
2023/08/01 04:52:20;;;;;;;331.98;308.83;;;14.20;86.40;;;;;;6205194;22;20386;-91
2023/08/01 04:55:10;;;;;;;322.23;299.75;;;14.30;86.50;;;;;;6259068;22;20020;-91
2023/08/01 04:57:39;;;;;;;443.80;411.63;;;14.30;86.60;;;;;;6180913;22;20012;-91
2023/08/01 05:00:13;;;;;;;336.52;313.42;;;14.30;86.60;;;;;;6230044;22;20414;-92
2023/08/01 05:02:42;;;;;;;330.65;307.48;;;14.40;86.60;;;;;;6235342;22;20030;-91
2023/08/01 05:05:15;;;;;;;341.60;317.95;;;14.40;86.80;;;;;;6248445;22;20020;-91
2023/08/01 05:07:50;;;;;;;424.00;393.13;;;14.50;86.80;;;;;;6238803;22;20039;-91
2023/08/01 05:10:20;;;;;;;418.10;387.92;;;14.50;86.80;;;;;;6224081;22;20102;-91
2023/08/01 05:12:46;;;;;;;445.23;411.70;;;14.50;86.80;;;;;;6226339;22;20496;-90
2023/08/01 05:15:12;;;;;;;332.35;309.88;;;14.60;86.70;;;;;;6207329;22;20012;-91
2023/08/01 05:17:45;;;;;;;319.73;297.63;;;14.60;86.70;;;;;;6238287;22;20031;-92
2023/08/01 05:20:18;;;;;;;368.92;343.25;;;14.60;86.60;;;;;;6223083;22;20023;-92
2023/08/01 05:22:57;;;;;;;357.73;332.65;;;14.60;86.50;;;;;;6245142;22;20067;-91
2023/08/01 05:25:35;;;;;;;351.05;327.38;;;14.70;86.40;;;;;;6224833;22;20026;-92
2023/08/01 05:28:11;;;;;;;484.05;447.48;;;14.70;86.60;;;;;;6193854;22;20455;-93
2023/08/01 05:30:55;;;;;;;325.30;304.15;;;14.60;86.40;;;;;;6159947;23;20155;-92
2023/08/01 05:33:21;;;;;;;333.05;310.88;;;14.60;86.30;;;;;;6169387;22;20026;-91
2023/08/01 05:36:01;;;;;;;334.15;312.50;;;14.60;86.10;;;;;;6248226;22;20055;-92
2023/08/01 05:38:42;;;;;;;;;;;;;;;;;;;;;
2023/08/01 05:41:08;;;;;;;348.38;324.83;;;14.60;86.00;;;;;;6272997;22;20019;-92
2023/08/01 05:43:56;;;;;;;343.92;320.85;;;14.60;86.10;;;;;;6203285;22;20070;-92
2023/08/01 05:46:34;;;;;;;351.80;328.40;;;14.60;86.20;;;;;;6244308;22;20069;-93
2023/08/01 05:49:00;;;;;;;465.63;432.42;;;14.60;86.40;;;;;;6243796;22;20081;-91
2023/08/01 05:51:50;;;;;;;344.83;321.10;;;14.60;86.40;;;;;;6247552;22;20342;-91
2023/08/01 05:54:15;;;;;;;430.58;400.30;;;14.60;86.50;;;;;;6232328;22;20027;-93
2023/08/01 05:56:44;;;;;;;420.15;390.38;;;14.70;86.50;;;;;;6216285;22;20012;-91
2023/08/01 05:59:18;;;;;;;350.55;326.15;;;14.70;86.60;;;;;;6242997;22;20030;-90
2023/08/01 06:01:44;;;;;;;436.40;404.55;;;14.70;86.70;;;;;;6247279;22;20026;-91
2023/08/01 06:04:13;;;;;;;349.30;324.80;;;14.70;86.60;;;;;;6194987;22;20094;-91
2023/08/01 06:06:39;;;;;;;380.08;354.25;;;14.70;86.60;;;;;;6241196;22;20011;-91
2023/08/01 06:09:08;;;;;;;381.77;356.15;;;14.70;86.50;;;;;;6203458;22;20030;-92
2023/08/01 06:11:34;;;;;;;441.15;409.48;;;14.70;86.60;;;;;;6222142;22;20015;-91
2023/08/01 06:14:03;;;;;;;493.90;455.90;;;14.70;86.60;;;;;;6245561;22;20053;-91
2023/08/01 06:16:31;;;;;;;341.27;319.45;;;14.70;86.50;;;;;;6242725;22;20215;-91
2023/08/01 06:18:57;;;;;;;350.02;327.00;;;14.70;86.40;;;;;;6216933;22;20026;-91
2023/08/01 06:21:29;;;;;;;344.10;320.88;;;14.70;86.50;;;;;;6247641;22;20102;-92
2023/08/01 06:23:55;;;;;;;343.08;320.35;;;14.70;86.40;;;;;;6244735;22;20756;-92
2023/08/01 06:26:27;;;;;;;444.02;412.80;;;14.70;86.40;;;;;;6244466;22;20019;-94
2023/08/01 06:28:55;;;;;;;334.20;311.90;;;14.70;86.30;;;;;;6206035;22;20527;-90
2023/08/01 06:31:30;;;;;;;343.90;320.98;;;14.70;86.10;;;;;;6246345;22;20011;-91
2023/08/01 06:33:56;;;;;;;341.75;319.25;;;14.60;85.70;;;;;;6201895;22;20020;-92
2023/08/01 06:36:28;;;;;;;347.65;323.88;;;14.60;86.00;;;;;;6242681;22;20007;-92
2023/08/01 06:39:03;;;;;;;344.85;321.33;;;14.60;86.10;;;;;;6245077;22;20020;-91
2023/08/01 06:41:41;;;;;;;448.65;417.42;;;14.70;86.30;;;;;;6247638;22;20024;-92
2023/08/01 06:44:44;;;;;;;427.17;397.85;;;14.70;86.50;;;;;;6230137;22;20027;-92
2023/08/01 06:47:13;;;;;;;315.45;294.77;;;14.80;86.30;;;;;;6209450;22;20024;-92
2023/08/01 06:49:57;;;;;;;;;;;;;;;;;;;;;
2023/08/01 06:52:50;;;;;;;465.55;433.20;;;14.80;85.80;;;;;;6238328;22;20031;-92
2023/08/01 06:55:52;;;;;;;501.95;465.45;;;14.90;85.50;;;;;;6205226;22;20086;-89
2023/08/01 06:58:21;;;;;;;352.05;329.25;;;14.90;85.70;;;;;;6188549;22;20016;-91
2023/08/01 07:00:47;;;;;;;345.33;322.13;;;14.90;85.30;;;;;;6249587;22;20469;-91
2023/08/01 07:03:32;;;;;;;;;;;;;;;;;;;;;
2023/08/01 07:06:03;;;;;;;356.65;332.83;;;15.00;85.40;;;;;;6275185;22;20016;-91
2023/08/01 07:08:32;;;;;;;568.10;525.45;;;15.00;84.90;;;;;;6214589;22;20026;-92
2023/08/01 07:11:21;;;;;;;482.13;446.10;;;15.00;84.80;;;;;;6249161;22;20020;-92
2023/08/01 07:13:55;;;;;;;341.27;318.48;;;14.90;85.00;;;;;;6252395;22;20019;-91
2023/08/01 07:16:32;;;;;;;352.90;330.00;;;15.00;85.10;;;;;;6276618;22;20015;-92
2023/08/01 07:19:04;;;;;;;396.60;368.63;;;15.00;85.30;;;;;;6217258;22;20019;-91
2023/08/01 07:21:38;;;;;;;495.60;459.75;;;15.00;85.30;;;;;;6254374;22;20016;-91
2023/08/01 07:24:10;;;;;;;369.17;344.67;;;15.10;85.50;;;;;;6277696;22;20023;-91
2023/08/01 07:26:38;;;;;;;350.33;326.88;;;15.10;85.50;;;;;;6274081;22;20026;-91
2023/08/01 07:29:15;;;;;;;356.38;331.73;;;15.10;85.30;;;;;;6208783;22;20022;-91
2023/08/01 07:31:47;;;;;;;348.08;324.92;;;15.00;85.40;;;;;;6256046;22;20019;-94
2023/08/01 07:34:32;;;;;;;553.53;511.42;;;15.00;85.70;;;;;;6214407;22;20505;-91
2023/08/01 07:37:41;;;;;;;;;;;15.00;85.70;;;;;;6250316;22;20104;-92
2023/08/01 07:40:25;;;;;;;334.77;312.40;;;15.00;85.40;;;;;;6189987;22;19927;-93
2023/08/01 07:43:23;;;;;;;476.83;441.77;;;15.00;85.70;;;;;;6221666;22;20020;-93
2023/08/01 07:46:30;;;;;;;351.38;327.70;;;15.00;85.50;;;;;;6210756;22;20055;-94
2023/08/01 07:49:41;;;;;;;;;;;;;;;;;;;;;
2023/08/01 07:52:18;;;;;;;550.88;509.25;;;15.10;85.70;;;;;;6230270;22;20020;-93
2023/08/01 07:55:42;;;;;;;358.23;334.88;;;15.20;85.50;;;;;;6206758;23;20104;-92
2023/08/01 07:58:36;;;;;;;357.13;332.30;;;15.30;85.20;;;;;;6197084;23;20025;-93
2023/08/01 08:01:06;;;;;;;519.80;481.48;;;15.40;85.00;;;;;;6205723;22;20515;-92
2023/08/01 08:03:37;;;;;;;396.55;369.38;;;15.50;84.80;;;;;;6262666;22;20019;-93
2023/08/01 08:06:26;;;;;;;409.00;378.65;;;15.50;84.20;;;;;;6250197;22;20019;-90
2023/08/01 08:08:54;;;;;;;569.78;526.42;;;15.60;83.70;;;;;;6224246;22;20015;-92
2023/08/01 08:14:14;;;;;;;541.50;501.98;;;15.60;84.20;;;;;;6259065;22;20037;-93
2023/08/01 08:17:15;;;;;;;;;;;;;;;;;;;;;
2023/08/01 08:19:41;;;;;;;346.33;324.05;;;15.80;84.60;;;;;;6296604;22;20090;-91
2023/08/01 08:22:07;;;;;;;381.52;355.75;;;15.70;84.10;;;;;;6260787;22;20059;-91
2023/08/01 08:24:39;;;;;;;392.20;365.55;;;15.60;83.90;;;;;;6250640;22;20019;-92
2023/08/01 08:27:13;;;;;;;368.75;344.27;;;15.50;83.00;;;;;;6253700;22;20011;-92
2023/08/01 08:29:44;;;;;;;376.92;352.27;;;15.30;83.50;;;;;;6261994;22;20019;-93
2023/08/01 08:32:13;;;;;;;;;;;15.30;83.60;;;;;;6235508;22;20342;-93
2023/08/01 08:34:42;;;;;;;581.55;536.85;;;15.20;83.80;;;;;;6273415;22;19972;-93
2023/08/01 08:37:26;;;;;;;366.98;342.27;;;15.00;84.30;;;;;;6268976;22;20053;-92
2023/08/01 08:43:45;;;;;;;501.85;466.10;;;14.90;84.80;;;;;;6077687;23;20524;-91
2023/08/01 08:49:31;;;;;;;518.58;481.52;;;14.90;84.70;;;;;;6098666;23;20021;-90
2023/08/01 08:52:19;;;;;;;352.10;328.42;;;14.90;85.00;;;;;;6101091;23;20021;-94
2023/08/01 08:54:57;;;;;;;360.35;336.10;;;14.90;85.20;;;;;;6188758;22;20133;-93
2023/08/01 08:57:50;;;;;;;;;;;;;;;;;;;;;
2023/08/01 09:00:46;;;;;;;525.10;486.88;;;15.00;85.50;;;;;;6228469;22;20020;-91
2023/08/01 09:03:16;;;;;;;374.45;348.98;;;15.30;85.90;;;;;;6279938;22;20015;-92
2023/08/01 09:06:22;;;;;;;421.55;391.75;;;15.50;86.00;;;;;;6281654;22;20076;-93
2023/08/01 09:09:32;;;;;;;;;;;;;;;;;;;;;
2023/08/01 09:12:51;;;;;;;363.35;338.63;;;15.60;85.50;;;;;;6267953;22;20024;-92
2023/08/01 09:15:46;;;;;;;510.15;470.60;;;15.70;85.20;;;;;;6248943;22;20030;-94
2023/08/01 09:18:25;;;;;;;393.92;366.67;;;15.80;85.20;;;;;;6224332;22;20025;-93
2023/08/01 09:21:02;;;;;;;542.20;501.05;;;15.80;85.10;;;;;;6202322;22;20019;-93
2023/08/01 09:23:34;;;;;;;651.03;598.22;;;15.90;84.50;;;;;;6215479;22;20024;-90
2023/08/01 09:26:13;;;;;;;548.95;503.48;;;15.90;83.80;;;;;;6243479;22;20093;-91
2023/08/01 09:28:57;;;;;;;359.75;336.27;;;15.90;83.10;;;;;;6266064;22;20019;-93
2023/08/01 09:32:11;;;;;;;548.30;506.83;;;15.80;83.40;;;;;;6279080;22;20019;-93
2023/08/01 09:35:07;;;;;;;363.88;339.80;;;15.80;83.80;;;;;;6248419;22;20043;-92
2023/08/01 09:37:51;;;;;;;;;;;;;;;;;;;;;
2023/08/01 09:40:23;;;;;;;511.83;473.17;;;15.80;83.40;;;;;;6274804;22;20378;-92
2023/08/01 09:46:34;;;;;;;443.00;410.05;;;15.80;83.40;;;;;;6278334;22;20019;-93
2023/08/01 09:49:13;;;;;;;714.20;653.53;;;16.00;83.70;;;;;;6123273;23;20024;-92
2023/08/01 09:52:01;;;;;;;395.42;369.10;;;16.10;82.80;;;;;;6152366;23;20455;-89
2023/08/01 09:54:29;;;;;;;479.63;446.45;;;16.20;82.30;;;;;;6149578;23;20036;-90
2023/08/01 09:57:17;;;;;;;419.70;391.00;;;16.40;82.60;;;;;;6145279;23;20115;-91
2023/08/01 09:59:47;;;;;;;611.45;562.13;;;16.50;82.70;;;;;;6236125;22;20161;-92
2023/08/01 10:02:32;;;;;;;533.15;491.50;;;16.50;81.70;;;;;;6201001;22;20015;-95
2023/08/01 10:05:06;;;;;;;441.10;411.45;;;16.70;81.00;;;;;;6226353;22;20042;-92
2023/08/01 10:07:33;;;;;;;441.42;411.40;;;16.80;81.70;;;;;;6222998;22;20043;-91
2023/08/01 10:10:02;;;;;;;485.35;451.02;;;16.90;81.00;;;;;;6224845;22;20055;-95
2023/08/01 10:12:38;;;;;;;465.55;432.35;;;16.90;80.70;;;;;;6240500;22;20043;-91
2023/08/01 10:15:05;;;;;;;590.30;540.72;;;16.90;80.80;;;;;;6243835;22;20050;-89
2023/08/01 10:17:35;;;;;;;482.00;444.27;;;16.80;80.50;;;;;;6209850;22;20030;-91
2023/08/01 10:20:04;;;;;;;572.33;524.33;;;16.70;80.80;;;;;;6218528;22;20022;-90
2023/08/01 10:22:31;;;;;;;509.20;473.42;;;16.70;78.40;;;;;;6241321;22;20012;-91
2023/08/01 10:24:58;;;;;;;579.40;535.17;;;16.60;80.00;;;;;;6218813;22;20074;-91
2023/08/01 10:27:28;;;;;;;507.42;467.70;;;16.60;79.50;;;;;;6168767;22;20059;-90
2023/08/01 10:30:03;;;;;;;742.85;677.00;;;16.70;80.00;;;;;;6243635;22;20020;-89
2023/08/01 10:32:35;;;;;;;689.63;631.03;;;16.80;78.60;;;;;;6230265;22;20473;-89
2023/08/01 10:35:04;;;;;;;505.58;465.13;;;16.90;78.40;;;;;;6244277;22;20024;-89
2023/08/01 10:37:55;;;;;;;620.20;564.05;;;17.00;78.90;;;;;;6235654;22;20023;-90
2023/08/01 10:40:36;;;;;;;564.13;519.50;;;17.20;77.70;;;;;;6243452;22;20523;-91
2023/08/01 10:43:02;;;;;;;465.98;427.92;;;17.30;78.10;;;;;;6240777;22;20098;-89
2023/08/01 10:45:29;;;;;;;695.47;633.95;;;17.50;76.70;;;;;;6218917;22;20020;-90
2023/08/01 10:48:08;;;;;;;420.33;391.23;;;17.50;75.00;;;;;;6233238;22;20110;-90
2023/08/01 10:50:34;;;;;;;429.42;397.63;;;17.40;76.60;;;;;;6244181;22;20020;-90
2023/08/01 10:53:09;;;;;;;621.13;570.85;;;17.40;75.70;;;;;;6216599;22;20032;-91
2023/08/01 10:56:26;;;;;;;418.25;388.02;;;17.40;75.70;;;;;;6244194;22;20028;-92
2023/08/01 10:59:02;;;;;;;;;;;;;;;;;;;;;
2023/08/01 11:01:48;;;;;;;594.03;548.25;;;17.50;76.20;;;;;;6247965;22;20086;-92
2023/08/01 11:04:35;;;;;;;576.80;534.80;;;17.50;76.10;;;;;;6168901;22;20450;-95
2023/08/01 11:07:33;;;;;;;580.90;538.28;;;17.50;75.20;;;;;;6213467;22;20097;-93
2023/08/01 11:10:20;;;;;;;472.67;436.38;;;17.50;75.50;;;;;;6136215;22;20062;-92
2023/08/01 11:13:01;;;;;;;559.63;516.13;;;17.50;73.90;;;;;;6231033;22;20026;-92
2023/08/01 11:19:21;;;;;;;;;;;;;;;;;;;;;
2023/08/01 11:21:58;;;;;;;559.10;517.50;;;17.50;75.30;;;;;;6266743;22;20082;-92
2023/08/01 11:24:46;;;;;;;473.50;438.55;;;17.60;75.70;;;;;;6216239;22;20047;-92
2023/08/01 11:27:18;;;;;;;562.88;517.15;;;17.80;75.80;;;;;;6212282;22;20051;-94
2023/08/01 11:29:47;;;;;;;660.03;605.38;;;17.90;74.50;;;;;;6243555;22;20027;-89
2023/08/01 11:32:34;;;;;;;511.90;470.08;;;17.90;73.00;;;;;;6267666;22;20012;-92
2023/08/01 11:35:04;;;;;;;510.75;470.98;;;18.00;72.30;;;;;;6243866;22;20391;-92
2023/08/01 11:37:58;;;;;;;581.28;531.58;;;18.00;73.20;;;;;;6236102;22;20023;-91
2023/08/01 11:41:00;;;;;;;488.20;449.83;;;18.10;72.50;;;;;;6229737;22;20031;-92
2023/08/01 11:43:59;;;;;;;;;;;;;;;;;;;;;
2023/08/01 11:46:36;;;;;;;521.45;481.67;;;18.00;72.50;;;;;;6229388;22;20026;-93
2023/08/01 11:49:31;;;;;;;481.00;446.08;;;18.00;71.80;;;;;;6202757;22;20817;-91
2023/08/01 11:51:57;;;;;;;421.52;391.73;;;18.00;72.30;;;;;;6222061;22;20085;-91
2023/08/01 11:54:54;;;;;;;491.17;454.15;;;18.00;73.30;;;;;;6203756;22;20028;-93
2023/08/01 11:57:43;;;;;;;407.10;377.30;;;18.00;73.40;;;;;;6154542;22;20030;-91
2023/08/01 12:00:19;;;;;;;719.30;662.47;;;18.00;73.60;;;;;;6145456;22;20020;-92
2023/08/01 12:02:56;;;;;;;425.55;394.85;;;17.90;73.50;;;;;;6220336;22;20350;-90
2023/08/01 12:06:00;;;;;;;529.20;487.17;;;17.80;74.10;;;;;;6223370;22;20051;-90
2023/08/01 12:09:13;;;;;;;529.13;488.15;;;17.80;74.00;;;;;;6236710;22;20027;-94
2023/08/01 12:11:40;;;;;;;457.55;423.45;;;18.00;74.20;;;;;;6125032;23;20017;-91
2023/08/01 12:15:29;;;;;;;434.23;402.20;;;18.10;74.00;;;;;;6216686;22;20025;-91
2023/08/01 12:21:05;;;;;;;432.90;402.27;;;18.20;73.10;;;;;;6223822;22;20116;-91
2023/08/01 12:24:05;;;;;;;;;;;;;;;;;;;;;
2023/08/01 12:26:40;;;;;;;651.95;594.10;;;18.30;72.10;;;;;;6221979;22;20016;-91
2023/08/01 12:29:15;;;;;;;;;;;;;;;;;;;;;
2023/08/01 12:32:16;;;;;;;458.23;425.13;;;18.20;72.60;;;;;;6270506;22;20016;-92
2023/08/01 12:34:45;;;;;;;446.15;413.00;;;18.20;71.80;;;;;;6222754;22;20031;-92
2023/08/01 12:37:20;;;;;;;646.63;598.17;;;18.10;71.90;;;;;;6214155;22;20019;-93
2023/08/01 12:39:49;;;;;;;741.28;676.15;;;18.00;72.50;;;;;;6194076;22;20081;-92
2023/08/01 12:42:23;;;;;;;497.92;457.08;;;18.00;72.70;;;;;;6225780;22;20520;-91
2023/08/01 12:45:22;;;;;;;480.02;440.45;;;17.90;73.50;;;;;;6225503;22;20012;-92
2023/08/01 12:48:11;;;;;;;432.52;400.77;;;18.00;73.30;;;;;;6224359;22;20530;-93
2023/08/01 12:50:37;;;;;;;663.38;607.97;;;18.20;72.60;;;;;;6157465;23;20036;-91
2023/08/01 12:53:22;;;;;;;466.38;434.55;;;18.20;71.90;;;;;;6098575;23;20033;-93
2023/08/01 13:03:21;;;;;;;416.73;387.63;;;18.20;72.80;;;;;;6174300;22;20019;-92
2023/08/01 13:05:47;;;;;;;472.08;436.83;;;18.00;73.40;;;;;;6236266;22;20027;-91
2023/08/01 13:08:38;;;;;;;516.72;472.95;;;17.90;73.60;;;;;;6234666;22;20085;-92
2023/08/01 13:11:12;;;;;;;417.52;386.77;;;17.80;74.10;;;;;;6227541;22;20027;-92
2023/08/01 13:13:59;;;;;;;612.35;558.90;;;17.80;74.60;;;;;;6232420;22;20031;-92
2023/08/01 13:16:30;;;;;;;438.42;408.25;;;17.90;74.00;;;;;;6211021;23;20601;-91
2023/08/01 13:18:56;;;;;;;467.92;431.92;;;18.10;73.50;;;;;;6209418;23;20024;-91
2023/08/01 13:21:25;;;;;;;497.33;459.77;;;18.30;72.30;;;;;;6190128;23;20485;-91
2023/08/01 13:24:17;;;;;;;533.50;490.50;;;18.40;71.90;;;;;;6181192;22;20144;-93
2023/08/01 13:27:15;;;;;;;499.77;460.40;;;18.50;72.30;;;;;;6183851;23;20047;-94
2023/08/01 13:29:52;;;;;;;461.63;426.33;;;18.50;72.40;;;;;;6204116;22;20470;-93
2023/08/01 13:32:26;;;;;;;510.92;468.20;;;18.50;73.00;;;;;;6218194;22;20479;-93
2023/08/01 13:35:01;;;;;;;504.15;463.23;;;18.50;73.50;;;;;;6244552;22;20445;-94
2023/08/01 13:37:59;;;;;;;664.10;612.80;;;18.50;73.70;;;;;;6239196;22;20523;-94
2023/08/01 13:41:02;;;;;;;;;;;;;;;;;;;;;
2023/08/01 13:43:54;;;;;;;617.03;563.78;;;18.20;73.50;;;;;;6268390;22;20023;-92
2023/08/01 13:46:45;;;;;;;662.30;601.47;;;18.00;74.90;;;;;;6243546;22;20098;-96
2023/08/01 13:49:41;;;;;;;680.28;626.35;;;17.40;77.40;;;;;;6166308;22;20024;-96
2023/08/01 13:52:19;;;;;;;673.70;619.00;;;16.90;78.40;;;;;;6247288;22;20020;-95
2023/08/01 13:54:51;;;;;;;626.03;577.10;;;16.70;79.70;;;;;;6246435;22;20036;-93
2023/08/01 13:57:45;;;;;;;583.50;539.92;;;16.60;80.00;;;;;;6219519;22;20051;-95
2023/08/01 14:00:26;;;;;;;595.92;549.70;;;16.70;80.90;;;;;;6155165;23;20513;-94
2023/08/01 14:03:15;;;;;;;609.45;562.40;;;16.80;80.10;;;;;;6141581;23;20052;-95
2023/08/01 14:05:55;;;;;;;626.33;576.47;;;16.90;78.90;;;;;;6111269;23;20052;-93
2023/08/01 14:08:57;;;;;;;;;;;;;;;;;;;;;
2023/08/01 14:11:26;;;;;;;587.60;541.50;;;17.20;79.00;;;;;;6181124;23;20020;-92
2023/08/01 14:14:00;;;;;;;539.38;493.25;;;17.30;78.00;;;;;;6191923;22;20023;-95
2023/08/01 14:16:34;;;;;;;608.45;562.30;;;17.30;77.30;;;;;;6153841;23;20100;-92
2023/08/01 14:19:15;;;;;;;499.65;460.15;;;17.30;78.10;;;;;;6175506;23;20092;-94
2023/08/01 14:22:23;;;;;;;508.60;468.10;;;17.40;78.20;;;;;;6207361;23;20048;-93
2023/08/01 14:24:42;;;;;;;663.90;611.00;;;17.50;78.10;;;;;;6201171;23;20024;-94
2023/08/01 14:27:10;;;;;;;654.97;602.88;;;17.40;76.70;;;;;;6179124;23;20113;-93
2023/08/01 14:29:51;;;;;;;432.95;398.85;;;17.20;77.60;;;;;;6162528;23;20067;-92
2023/08/01 14:32:32;;;;;;;475.10;438.10;;;16.90;77.80;;;;;;6170248;22;20020;-94
2023/08/01 14:35:32;;;;;;;574.97;531.83;;;16.60;79.10;;;;;;6184952;23;20086;-94
2023/08/01 14:38:09;;;;;;;519.70;478.92;;;16.40;80.20;;;;;;6184642;23;20091;-93
2023/08/01 14:41:19;;;;;;;;;;;;;;;;;;;;;
2023/08/01 14:44:12;;;;;;;537.42;497.23;;;16.30;82.40;;;;;;6193788;23;20020;-95
2023/08/01 14:47:07;;;;;;;506.98;470.73;;;16.40;81.60;;;;;;6212437;22;20115;-93
2023/08/01 14:49:54;;;;;;;;;;;;;;;;;;;;;
2023/08/01 14:53:07;;;;;;;554.10;511.95;;;16.70;80.80;;;;;;6268860;22;20030;-94
2023/08/01 14:55:42;;;;;;;479.17;446.15;;;16.80;81.30;;;;;;6143104;22;20346;-91
2023/08/01 14:58:08;;;;;;;484.92;447.33;;;17.00;81.20;;;;;;6211917;22;20540;-93
2023/08/01 15:00:37;;;;;;;446.50;412.70;;;17.00;78.70;;;;;;6244636;22;20095;-94
2023/08/01 15:03:04;;;;;;;489.23;451.98;;;16.90;78.50;;;;;;6181151;22;20720;-91
2023/08/01 15:05:35;;;;;;;588.45;543.85;;;16.90;78.30;;;;;;6206310;22;20320;-93
2023/08/01 15:08:16;;;;;;;;;;;17.00;78.20;;;;;;6211118;22;20469;-93
2023/08/01 15:10:50;;;;;;;668.03;604.70;;;17.00;78.20;;;;;;6244535;22;20250;-94
2023/08/01 15:13:25;;;;;;;702.35;632.33;;;17.20;76.20;;;;;;6216725;22;20485;-96
2023/08/01 15:15:51;;;;;;;716.83;651.95;;;17.20;76.60;;;;;;6218576;22;20019;-91
2023/08/01 15:18:34;;;;;;;677.63;622.53;;;17.20;76.50;;;;;;6211602;22;20023;-93
2023/08/01 15:21:10;;;;;;;;;;;;;;;;;;;;;
2023/08/01 15:23:36;;;;;;;564.15;518.28;;;17.40;76.90;;;;;;6224770;22;20020;-92
2023/08/01 15:26:36;;;;;;;547.75;501.30;;;17.50;76.40;;;;;;6240986;22;20092;-96
2023/08/01 15:29:04;;;;;;;664.38;604.10;;;17.60;75.50;;;;;;6185990;22;20039;-92
2023/08/01 15:31:34;;;;;;;725.08;665.50;;;17.80;76.00;;;;;;6244909;22;20023;-92
2023/08/01 15:34:48;;;;;;;694.08;638.63;;;18.00;75.70;;;;;;6225054;22;20035;-95
2023/08/01 15:37:23;;;;;;;412.42;383.63;;;18.00;74.30;;;;;;6200370;22;20445;-92
2023/08/01 15:39:49;;;;;;;422.85;393.92;;;18.20;74.60;;;;;;6245642;22;20011;-92
2023/08/01 15:42:17;;;;;;;424.13;394.73;;;18.20;73.90;;;;;;6227966;22;20048;-94